sensor_id;sensor_type;location;lat;lon;timestamp;temperature;humidity
64670;DHT22;51080;51.690;5.174;2023-03-14T00:02:45;11.30;74.50
64670;DHT22;51080;51.690;5.174;2023-03-14T00:08:59;11.30;74.20
64670;DHT22;51080;51.690;5.174;2023-03-14T00:15:14;11.40;73.70
64670;DHT22;51080;51.690;5.174;2023-03-14T00:21:28;11.50;73.10
64670;DHT22;51080;51.690;5.174;2023-03-14T00:27:41;11.50;73.10
64670;DHT22;51080;51.690;5.174;2023-03-14T00:33:54;11.40;73.10
64670;DHT22;51080;51.690;5.174;2023-03-14T00:40:09;11.50;70.80
64670;DHT22;51080;51.690;5.174;2023-03-14T00:46:23;11.50;70.00
64670;DHT22;51080;51.690;5.174;2023-03-14T00:52:38;11.60;68.60
64670;DHT22;51080;51.690;5.174;2023-03-14T00:58:55;11.50;68.60
64670;DHT22;51080;51.690;5.174;2023-03-14T01:05:09;11.40;70.50
64670;DHT22;51080;51.690;5.174;2023-03-14T01:11:25;11.40;70.80
64670;DHT22;51080;51.690;5.174;2023-03-14T01:17:40;11.40;70.50
64670;DHT22;51080;51.690;5.174;2023-03-14T01:23:55;11.30;70.70
64670;DHT22;51080;51.690;5.174;2023-03-14T01:30:10;11.20;71.10
64670;DHT22;51080;51.690;5.174;2023-03-14T01:36:24;11.20;72.90
64670;DHT22;51080;51.690;5.174;2023-03-14T01:42:38;10.80;75.90
64670;DHT22;51080;51.690;5.174;2023-03-14T01:49:07;10.50;77.80
64670;DHT22;51080;51.690;5.174;2023-03-14T01:55:24;10.30;77.90
64670;DHT22;51080;51.690;5.174;2023-03-14T02:01:41;10.20;78.00
64670;DHT22;51080;51.690;5.174;2023-03-14T02:07:58;10.20;78.60
64670;DHT22;51080;51.690;5.174;2023-03-14T02:14:22;10.10;80.20
64670;DHT22;51080;51.690;5.174;2023-03-14T02:21:12;10.00;80.50
64670;DHT22;51080;51.690;5.174;2023-03-14T02:27:25;9.90;79.80
64670;DHT22;51080;51.690;5.174;2023-03-14T02:33:40;9.80;79.60
64670;DHT22;51080;51.690;5.174;2023-03-14T02:39:54;9.80;79.10
64670;DHT22;51080;51.690;5.174;2023-03-14T02:46:12;9.90;78.80
64670;DHT22;51080;51.690;5.174;2023-03-14T02:52:26;10.00;78.50
64670;DHT22;51080;51.690;5.174;2023-03-14T02:58:39;10.00;78.10
64670;DHT22;51080;51.690;5.174;2023-03-14T03:04:53;10.10;78.00
64670;DHT22;51080;51.690;5.174;2023-03-14T03:11:08;10.20;77.60
64670;DHT22;51080;51.690;5.174;2023-03-14T03:17:21;10.20;77.50
64670;DHT22;51080;51.690;5.174;2023-03-14T03:23:35;10.30;77.00
64670;DHT22;51080;51.690;5.174;2023-03-14T03:29:49;10.20;77.00
64670;DHT22;51080;51.690;5.174;2023-03-14T03:36:03;10.20;77.20
64670;DHT22;51080;51.690;5.174;2023-03-14T03:42:18;10.30;76.60
64670;DHT22;51080;51.690;5.174;2023-03-14T03:48:34;10.30;76.80
64670;DHT22;51080;51.690;5.174;2023-03-14T03:54:48;10.30;76.90
64670;DHT22;51080;51.690;5.174;2023-03-14T04:01:02;10.30;76.50
64670;DHT22;51080;51.690;5.174;2023-03-14T04:07:16;10.30;76.40
64670;DHT22;51080;51.690;5.174;2023-03-14T04:13:30;10.30;76.50
64670;DHT22;51080;51.690;5.174;2023-03-14T04:19:45;10.30;76.20
64670;DHT22;51080;51.690;5.174;2023-03-14T04:25:59;10.30;76.30
64670;DHT22;51080;51.690;5.174;2023-03-14T04:32:13;10.20;77.00
64670;DHT22;51080;51.690;5.174;2023-03-14T04:38:27;10.20;77.20
64670;DHT22;51080;51.690;5.174;2023-03-14T04:44:40;10.20;77.50
64670;DHT22;51080;51.690;5.174;2023-03-14T04:50:55;10.20;78.00
64670;DHT22;51080;51.690;5.174;2023-03-14T04:57:08;10.20;77.70
64670;DHT22;51080;51.690;5.174;2023-03-14T05:03:22;10.30;78.40
64670;DHT22;51080;51.690;5.174;2023-03-14T05:09:37;10.30;78.10
64670;DHT22;51080;51.690;5.174;2023-03-14T05:15:51;10.20;78.90
64670;DHT22;51080;51.690;5.174;2023-03-14T05:22:05;10.30;79.20
64670;DHT22;51080;51.690;5.174;2023-03-14T05:28:19;10.20;79.10
64670;DHT22;51080;51.690;5.174;2023-03-14T05:34:33;10.00;80.90
64670;DHT22;51080;51.690;5.174;2023-03-14T05:40:48;9.80;82.50
64670;DHT22;51080;51.690;5.174;2023-03-14T05:47:03;9.70;82.60
64670;DHT22;51080;51.690;5.174;2023-03-14T05:53:18;9.70;82.90
64670;DHT22;51080;51.690;5.174;2023-03-14T05:59:32;9.70;83.70
64670;DHT22;51080;51.690;5.174;2023-03-14T06:05:49;9.80;83.90
64670;DHT22;51080;51.690;5.174;2023-03-14T06:12:05;9.80;84.50
64670;DHT22;51080;51.690;5.174;2023-03-14T06:18:20;9.70;85.80
64670;DHT22;51080;51.690;5.174;2023-03-14T06:24:35;9.60;87.60
64670;DHT22;51080;51.690;5.174;2023-03-14T06:30:50;9.60;88.10
64670;DHT22;51080;51.690;5.174;2023-03-14T06:37:04;9.50;89.00
64670;DHT22;51080;51.690;5.174;2023-03-14T06:43:19;9.60;89.00
64670;DHT22;51080;51.690;5.174;2023-03-14T06:49:33;9.50;93.10
64670;DHT22;51080;51.690;5.174;2023-03-14T06:55:48;9.50;93.20
64670;DHT22;51080;51.690;5.174;2023-03-14T07:02:02;9.50;93.70
64670;DHT22;51080;51.690;5.174;2023-03-14T07:08:17;9.10;92.00
64670;DHT22;51080;51.690;5.174;2023-03-14T07:14:31;8.80;90.30
64670;DHT22;51080;51.690;5.174;2023-03-14T07:20:46;8.50;88.50
64670;DHT22;51080;51.690;5.174;2023-03-14T07:26:59;8.30;89.60
64670;DHT22;51080;51.690;5.174;2023-03-14T07:33:13;8.20;92.00
64670;DHT22;51080;51.690;5.174;2023-03-14T07:39:28;8.10;92.40
64670;DHT22;51080;51.690;5.174;2023-03-14T07:45:45;8.10;91.10
64670;DHT22;51080;51.690;5.174;2023-03-14T07:52:00;8.20;89.80
64670;DHT22;51080;51.690;5.174;2023-03-14T07:58:14;8.20;88.50
64670;DHT22;51080;51.690;5.174;2023-03-14T08:04:29;8.10;87.30
64670;DHT22;51080;51.690;5.174;2023-03-14T08:10:43;8.10;87.10
64670;DHT22;51080;51.690;5.174;2023-03-14T08:16:57;8.20;86.90
64670;DHT22;51080;51.690;5.174;2023-03-14T08:23:11;8.20;86.80
64670;DHT22;51080;51.690;5.174;2023-03-14T08:29:26;8.20;86.80
64670;DHT22;51080;51.690;5.174;2023-03-14T08:35:39;8.30;86.70
64670;DHT22;51080;51.690;5.174;2023-03-14T08:41:54;8.40;86.50
64670;DHT22;51080;51.690;5.174;2023-03-14T08:48:08;8.50;86.20
64670;DHT22;51080;51.690;5.174;2023-03-14T08:54:23;8.50;85.60
64670;DHT22;51080;51.690;5.174;2023-03-14T09:00:37;8.50;86.00
64670;DHT22;51080;51.690;5.174;2023-03-14T09:06:52;8.30;86.40
64670;DHT22;51080;51.690;5.174;2023-03-14T09:13:08;8.20;86.50
64670;DHT22;51080;51.690;5.174;2023-03-14T09:19:22;8.10;85.60
64670;DHT22;51080;51.690;5.174;2023-03-14T09:25:37;7.90;85.20
64670;DHT22;51080;51.690;5.174;2023-03-14T09:31:52;7.70;85.00
64670;DHT22;51080;51.690;5.174;2023-03-14T09:38:07;7.60;85.40
64670;DHT22;51080;51.690;5.174;2023-03-14T09:44:28;7.50;85.00
64670;DHT22;51080;51.690;5.174;2023-03-14T09:50:47;8.10;85.30
64670;DHT22;51080;51.690;5.174;2023-03-14T09:57:02;8.50;83.30
64670;DHT22;51080;51.690;5.174;2023-03-14T10:03:33;8.50;83.40
64670;DHT22;51080;51.690;5.174;2023-03-14T10:09:50;8.70;81.40
64670;DHT22;51080;51.690;5.174;2023-03-14T10:16:06;8.60;81.60
64670;DHT22;51080;51.690;5.174;2023-03-14T10:22:24;8.60;81.90
64670;DHT22;51080;51.690;5.174;2023-03-14T10:28:49;8.60;80.70
64670;DHT22;51080;51.690;5.174;2023-03-14T10:35:19;8.60;80.90
64670;DHT22;51080;51.690;5.174;2023-03-14T10:41:34;8.50;80.50
64670;DHT22;51080;51.690;5.174;2023-03-14T10:47:50;8.50;80.70
64670;DHT22;51080;51.690;5.174;2023-03-14T10:54:19;8.40;81.10
64670;DHT22;51080;51.690;5.174;2023-03-14T11:00:35;8.50;80.40
64670;DHT22;51080;51.690;5.174;2023-03-14T11:13:30;8.20;79.60
64670;DHT22;51080;51.690;5.174;2023-03-14T11:33:31;8.30;80.40
64670;DHT22;51080;51.690;5.174;2023-03-14T11:46:29;8.10;79.60
64670;DHT22;51080;51.690;5.174;2023-03-14T11:52:52;8.10;80.80
64670;DHT22;51080;51.690;5.174;2023-03-14T11:59:27;8.30;80.70
64670;DHT22;51080;51.690;5.174;2023-03-14T12:12:25;9.90;77.60
64670;DHT22;51080;51.690;5.174;2023-03-14T12:18:42;10.80;72.80
64670;DHT22;51080;51.690;5.174;2023-03-14T12:31:43;11.70;68.10
64670;DHT22;51080;51.690;5.174;2023-03-14T12:37:58;12.00;65.60
64670;DHT22;51080;51.690;5.174;2023-03-14T12:44:38;12.20;63.70
64670;DHT22;51080;51.690;5.174;2023-03-14T12:51:05;12.50;61.30
64670;DHT22;51080;51.690;5.174;2023-03-14T12:57:45;13.00;59.70
64670;DHT22;51080;51.690;5.174;2023-03-14T13:04:10;13.70;62.00
64670;DHT22;51080;51.690;5.174;2023-03-14T13:10:30;13.70;57.90
64670;DHT22;51080;51.690;5.174;2023-03-14T13:16:49;13.60;56.30
64670;DHT22;51080;51.690;5.174;2023-03-14T13:23:25;13.90;54.30
64670;DHT22;51080;51.690;5.174;2023-03-14T13:29:41;14.20;57.90
64670;DHT22;51080;51.690;5.174;2023-03-14T13:36:05;14.60;49.70
64670;DHT22;51080;51.690;5.174;2023-03-14T13:42:27;14.80;56.00
64670;DHT22;51080;51.690;5.174;2023-03-14T13:48:55;15.40;51.30
64670;DHT22;51080;51.690;5.174;2023-03-14T13:55:16;14.90;49.90
64670;DHT22;51080;51.690;5.174;2023-03-14T14:01:37;14.30;51.90
64670;DHT22;51080;51.690;5.174;2023-03-14T14:07:56;13.70;52.60
64670;DHT22;51080;51.690;5.174;2023-03-14T14:14:15;13.40;50.80
64670;DHT22;51080;51.690;5.174;2023-03-14T14:20:35;12.80;52.20
64670;DHT22;51080;51.690;5.174;2023-03-14T14:26:58;12.60;48.00
64670;DHT22;51080;51.690;5.174;2023-03-14T14:33:18;12.20;51.60
64670;DHT22;51080;51.690;5.174;2023-03-14T14:39:34;11.80;52.70
64670;DHT22;51080;51.690;5.174;2023-03-14T14:45:56;11.60;49.60
64670;DHT22;51080;51.690;5.174;2023-03-14T14:52:16;11.30;51.80
64670;DHT22;51080;51.690;5.174;2023-03-14T14:58:36;11.20;50.60
64670;DHT22;51080;51.690;5.174;2023-03-14T15:04:54;10.80;50.50
64670;DHT22;51080;51.690;5.174;2023-03-14T15:11:17;10.50;52.30
64670;DHT22;51080;51.690;5.174;2023-03-14T15:17:40;10.20;52.10
64670;DHT22;51080;51.690;5.174;2023-03-14T15:23:59;9.90;50.70
64670;DHT22;51080;51.690;5.174;2023-03-14T15:30:17;9.70;52.10
64670;DHT22;51080;51.690;5.174;2023-03-14T15:36:35;9.50;52.60
64670;DHT22;51080;51.690;5.174;2023-03-14T15:42:53;9.20;52.90
64670;DHT22;51080;51.690;5.174;2023-03-14T15:49:10;9.00;54.80
64670;DHT22;51080;51.690;5.174;2023-03-14T15:55:28;8.90;52.50
64670;DHT22;51080;51.690;5.174;2023-03-14T16:01:43;8.70;54.90
64670;DHT22;51080;51.690;5.174;2023-03-14T16:07:59;8.60;51.80
64670;DHT22;51080;51.690;5.174;2023-03-14T16:14:16;8.40;52.80
64670;DHT22;51080;51.690;5.174;2023-03-14T16:20:31;8.40;54.50
64670;DHT22;51080;51.690;5.174;2023-03-14T16:26:46;8.30;53.50
64670;DHT22;51080;51.690;5.174;2023-03-14T16:33:00;8.10;55.20
64670;DHT22;51080;51.690;5.174;2023-03-14T16:39:15;8.00;55.40
64670;DHT22;51080;51.690;5.174;2023-03-14T16:45:29;7.90;55.70
64670;DHT22;51080;51.690;5.174;2023-03-14T16:51:44;7.80;54.50
64670;DHT22;51080;51.690;5.174;2023-03-14T16:57:58;7.70;53.90
64670;DHT22;51080;51.690;5.174;2023-03-14T17:04:13;7.60;55.00
64670;DHT22;51080;51.690;5.174;2023-03-14T17:10:26;7.40;55.00
64670;DHT22;51080;51.690;5.174;2023-03-14T17:16:40;7.40;53.40
64670;DHT22;51080;51.690;5.174;2023-03-14T17:22:55;7.20;54.40
64670;DHT22;51080;51.690;5.174;2023-03-14T17:29:12;7.10;55.00
64670;DHT22;51080;51.690;5.174;2023-03-14T17:35:25;7.10;56.50
64670;DHT22;51080;51.690;5.174;2023-03-14T17:41:39;7.00;55.20
64670;DHT22;51080;51.690;5.174;2023-03-14T17:47:53;6.80;57.20
64670;DHT22;51080;51.690;5.174;2023-03-14T17:54:07;6.60;57.50
64670;DHT22;51080;51.690;5.174;2023-03-14T18:00:23;6.50;57.20
64670;DHT22;51080;51.690;5.174;2023-03-14T18:06:37;6.40;57.10
64670;DHT22;51080;51.690;5.174;2023-03-14T18:12:51;6.20;58.20
64670;DHT22;51080;51.690;5.174;2023-03-14T18:19:06;6.10;57.80
64670;DHT22;51080;51.690;5.174;2023-03-14T18:25:20;6.00;58.40
64670;DHT22;51080;51.690;5.174;2023-03-14T18:31:38;5.80;59.00
64670;DHT22;51080;51.690;5.174;2023-03-14T18:37:50;5.70;59.60
64670;DHT22;51080;51.690;5.174;2023-03-14T18:44:06;5.60;60.30
64670;DHT22;51080;51.690;5.174;2023-03-14T18:50:20;5.40;60.90
64670;DHT22;51080;51.690;5.174;2023-03-14T18:56:34;5.30;61.40
64670;DHT22;51080;51.690;5.174;2023-03-14T19:02:49;5.30;60.90
64670;DHT22;51080;51.690;5.174;2023-03-14T19:09:03;5.20;61.40
64670;DHT22;51080;51.690;5.174;2023-03-14T19:15:16;5.00;62.00
64670;DHT22;51080;51.690;5.174;2023-03-14T19:21:32;4.90;62.30
64670;DHT22;51080;51.690;5.174;2023-03-14T19:27:47;4.80;62.70
64670;DHT22;51080;51.690;5.174;2023-03-14T19:34:00;4.70;63.10
64670;DHT22;51080;51.690;5.174;2023-03-14T19:40:14;4.50;63.50
64670;DHT22;51080;51.690;5.174;2023-03-14T19:46:28;4.30;63.90
64670;DHT22;51080;51.690;5.174;2023-03-14T19:52:43;4.20;64.20
64670;DHT22;51080;51.690;5.174;2023-03-14T19:58:56;4.10;64.30
64670;DHT22;51080;51.690;5.174;2023-03-14T20:05:10;4.00;64.50
64670;DHT22;51080;51.690;5.174;2023-03-14T20:11:24;3.80;64.80
64670;DHT22;51080;51.690;5.174;2023-03-14T20:17:38;3.80;64.90
64670;DHT22;51080;51.690;5.174;2023-03-14T20:23:52;3.90;64.10
64670;DHT22;51080;51.690;5.174;2023-03-14T20:30:08;3.80;64.50
64670;DHT22;51080;51.690;5.174;2023-03-14T20:36:22;3.70;65.00
64670;DHT22;51080;51.690;5.174;2023-03-14T20:42:37;3.70;65.00
64670;DHT22;51080;51.690;5.174;2023-03-14T20:48:51;3.80;64.80
64670;DHT22;51080;51.690;5.174;2023-03-14T20:55:06;3.70;64.60
64670;DHT22;51080;51.690;5.174;2023-03-14T21:01:21;3.70;64.60
64670;DHT22;51080;51.690;5.174;2023-03-14T21:07:36;3.90;64.70
64670;DHT22;51080;51.690;5.174;2023-03-14T21:13:50;3.80;64.80
64670;DHT22;51080;51.690;5.174;2023-03-14T21:20:06;3.80;65.20
64670;DHT22;51080;51.690;5.174;2023-03-14T21:26:21;3.80;66.10
64670;DHT22;51080;51.690;5.174;2023-03-14T21:32:36;4.00;66.50
64670;DHT22;51080;51.690;5.174;2023-03-14T21:38:50;4.20;67.10
64670;DHT22;51080;51.690;5.174;2023-03-14T21:45:05;4.30;67.30
64670;DHT22;51080;51.690;5.174;2023-03-14T21:51:20;4.30;67.90
64670;DHT22;51080;51.690;5.174;2023-03-14T21:57:34;4.40;68.40
64670;DHT22;51080;51.690;5.174;2023-03-14T22:03:48;4.40;69.60
64670;DHT22;51080;51.690;5.174;2023-03-14T22:10:02;4.50;69.90
64670;DHT22;51080;51.690;5.174;2023-03-14T22:16:16;4.60;70.80
64670;DHT22;51080;51.690;5.174;2023-03-14T22:22:30;4.70;72.00
64670;DHT22;51080;51.690;5.174;2023-03-14T22:28:45;4.80;72.00
64670;DHT22;51080;51.690;5.174;2023-03-14T22:34:57;4.80;73.80
64670;DHT22;51080;51.690;5.174;2023-03-14T22:41:11;4.70;74.50
64670;DHT22;51080;51.690;5.174;2023-03-14T22:47:25;4.80;75.70
64670;DHT22;51080;51.690;5.174;2023-03-14T22:53:38;4.60;77.50
64670;DHT22;51080;51.690;5.174;2023-03-14T22:59:52;4.30;78.80
64670;DHT22;51080;51.690;5.174;2023-03-14T23:06:07;4.00;81.20
64670;DHT22;51080;51.690;5.174;2023-03-14T23:12:21;3.70;81.30
64670;DHT22;51080;51.690;5.174;2023-03-14T23:18:37;3.30;80.50
64670;DHT22;51080;51.690;5.174;2023-03-14T23:24:51;2.80;80.70
64670;DHT22;51080;51.690;5.174;2023-03-14T23:31:05;2.60;81.50
64670;DHT22;51080;51.690;5.174;2023-03-14T23:37:18;2.50;82.20
64670;DHT22;51080;51.690;5.174;2023-03-14T23:43:34;2.50;82.90
64670;DHT22;51080;51.690;5.174;2023-03-14T23:49:49;2.40;82.40
64670;DHT22;51080;51.690;5.174;2023-03-14T23:56:05;2.50;83.20
